createdAt,value
2023-08-08T00:00:13.053Z,13.21
2023-08-08T00:05:15.355Z,13.20
2023-08-08T00:10:17.595Z,13.17
2023-08-08T00:15:19.480Z,13.13
2023-08-08T00:20:21.518Z,13.10
2023-08-08T00:25:23.512Z,13.08
2023-08-08T00:30:25.508Z,13.08
2023-08-08T00:35:27.408Z,13.09
2023-08-08T00:40:29.330Z,13.07
2023-08-08T00:45:31.632Z,13.00
2023-08-08T00:50:33.529Z,12.90
2023-08-08T00:55:35.579Z,12.74
2023-08-08T01:00:38.322Z,12.53
2023-08-08T01:05:48.925Z,12.35
2023-08-08T01:10:51.560Z,12.17
2023-08-08T01:15:58.369Z,12.03
2023-08-08T01:21:01.481Z,11.90
2023-08-08T01:26:04.463Z,11.78
2023-08-08T01:31:07.317Z,11.72
2023-08-08T01:36:23.983Z,11.69
2023-08-08T01:41:26.254Z,11.70
2023-08-08T01:46:30.228Z,11.74
2023-08-08T01:51:32.154Z,11.77
2023-08-08T01:56:34.056Z,11.78
2023-08-08T02:01:36.835Z,11.79
2023-08-08T02:06:38.877Z,11.77
2023-08-08T02:11:40.728Z,11.72
2023-08-08T02:16:43.677Z,11.67
2023-08-08T02:21:46.207Z,11.66
2023-08-08T02:26:48.120Z,11.68
2023-08-08T02:31:50.080Z,11.71
2023-08-08T02:36:53.460Z,11.73
2023-08-08T02:41:55.277Z,11.78
2023-08-08T02:46:59.192Z,11.84
2023-08-08T02:52:02.262Z,11.92
2023-08-08T02:57:06.628Z,12.00
2023-08-08T03:02:08.735Z,12.06
2023-08-08T03:07:11.810Z,12.11
2023-08-08T03:12:14.518Z,12.16
2023-08-08T03:17:17.321Z,12.18
2023-08-08T03:22:19.733Z,12.20
2023-08-08T03:27:21.893Z,12.22
2023-08-08T03:32:26.392Z,12.24
2023-08-08T03:37:28.425Z,12.27
2023-08-08T03:42:30.354Z,12.28
2023-08-08T03:47:32.934Z,12.32
2023-08-08T03:52:36.992Z,12.34
2023-08-08T03:57:38.856Z,12.38
2023-08-08T04:07:11.201Z,12.45
2023-08-08T04:12:13.381Z,12.41
2023-08-08T04:17:15.259Z,12.41
2023-08-08T04:22:17.186Z,12.42
2023-08-08T04:27:19.444Z,12.43
2023-08-08T04:32:21.255Z,12.44
2023-08-08T04:37:23.374Z,12.46
2023-08-08T04:42:25.272Z,12.51
2023-08-08T04:47:27.122Z,12.60
2023-08-08T04:52:29.222Z,12.72
2023-08-08T04:57:31.495Z,12.82
2023-08-08T05:02:33.399Z,12.93
2023-08-08T05:07:37.733Z,13.03
2023-08-08T05:12:40.585Z,13.12
2023-08-08T05:17:42.614Z,13.25
2023-08-08T05:22:44.517Z,13.44
2023-08-08T05:27:46.382Z,13.64
2023-08-08T05:32:48.293Z,14.02
2023-08-08T05:37:50.174Z,14.32
2023-08-08T05:42:52.101Z,14.59
2023-08-08T05:47:54.260Z,14.86
2023-08-08T05:52:56.189Z,15.19
2023-08-08T05:57:58.228Z,15.40
2023-08-08T06:03:00.075Z,15.67
2023-08-08T06:08:01.971Z,16.00
2023-08-08T06:13:03.919Z,16.25
2023-08-08T06:18:06.543Z,16.43
2023-08-08T06:23:08.357Z,16.57
2023-08-08T06:28:10.205Z,16.81
2023-08-08T06:33:12.314Z,16.91
2023-08-08T06:38:14.286Z,16.91
2023-08-08T06:43:16.241Z,16.98
2023-08-08T06:48:18.600Z,17.21
2023-08-08T06:53:20.458Z,17.18
2023-08-08T06:58:22.416Z,17.38
2023-08-08T07:03:24.634Z,17.65
2023-08-08T07:08:26.905Z,17.70
2023-08-08T07:13:29.056Z,17.89
2023-08-08T07:18:31.151Z,18.10
2023-08-08T07:23:33.060Z,18.52
2023-08-08T07:28:34.860Z,18.58
2023-08-08T07:33:36.685Z,18.54
2023-08-08T07:38:39.764Z,18.51
2023-08-08T07:43:41.602Z,18.63
2023-08-08T07:48:43.400Z,19.04
2023-08-08T07:53:47.300Z,19.46
2023-08-08T07:58:49.523Z,19.80
2023-08-08T08:03:51.462Z,19.99
2023-08-08T08:08:53.502Z,20.05
2023-08-08T08:13:55.379Z,19.94
2023-08-08T08:18:57.162Z,19.63
2023-08-08T08:23:58.946Z,19.40
2023-08-08T08:29:00.794Z,19.74
2023-08-08T08:34:02.598Z,19.62
2023-08-08T08:39:04.883Z,20.09
2023-08-08T08:44:07.407Z,20.59
2023-08-08T08:49:10.935Z,20.24
2023-08-08T08:54:13.304Z,19.33
2023-08-08T08:59:15.343Z,18.74
2023-08-08T09:04:19.478Z,18.52
2023-08-08T09:09:23.121Z,18.38
2023-08-08T09:14:28.123Z,18.88
2023-08-08T09:19:30.245Z,19.14
2023-08-08T09:24:32.219Z,19.07
2023-08-08T09:29:34.594Z,18.65
2023-08-08T09:34:37.195Z,18.12
2023-08-08T09:39:39.110Z,17.70
2023-08-08T09:44:40.971Z,18.01
2023-08-08T09:49:44.186Z,18.87
2023-08-08T09:54:47.781Z,19.70
2023-08-08T09:59:50.994Z,20.53
2023-08-08T10:04:54.686Z,21.05
2023-08-08T10:09:57.639Z,20.44
2023-08-08T10:15:00.000Z,19.38
2023-08-08T10:20:10.560Z,18.71
2023-08-08T10:25:20.988Z,18.28
2023-08-08T10:30:22.915Z,17.93
2023-08-08T10:35:29.912Z,17.99
2023-08-08T10:40:34.895Z,18.51
2023-08-08T10:45:37.733Z,19.27
2023-08-08T10:50:42.442Z,19.74
2023-08-08T10:55:45.612Z,19.73
2023-08-08T11:00:48.955Z,19.94
2023-08-08T11:05:51.708Z,20.12
2023-08-08T11:10:54.453Z,20.65
2023-08-08T11:15:56.770Z,20.78
2023-08-08T11:21:12.773Z,20.43
2023-08-08T11:26:20.403Z,20.40
2023-08-08T11:31:23.168Z,20.92
2023-08-08T11:36:25.313Z,20.80
2023-08-08T11:41:27.806Z,20.37
2023-08-08T11:46:29.917Z,20.30
2023-08-08T11:51:33.160Z,20.60
2023-08-08T11:56:35.951Z,20.63
2023-08-08T12:01:38.948Z,20.65
2023-08-08T12:06:41.900Z,20.92
2023-08-08T12:11:46.256Z,21.73
2023-08-08T12:16:48.951Z,22.20
2023-08-08T12:21:50.793Z,22.46
2023-08-08T12:26:53.021Z,22.33
2023-08-08T12:31:55.119Z,22.18
2023-08-08T12:36:57.289Z,22.11
2023-08-08T12:41:59.502Z,21.96
2023-08-08T12:47:01.580Z,21.44
2023-08-08T12:52:03.816Z,20.99
2023-08-08T12:57:05.897Z,21.19
2023-08-08T13:02:08.204Z,21.58
2023-08-08T13:07:10.494Z,21.97
2023-08-08T13:12:12.379Z,22.22
2023-08-08T13:17:14.346Z,22.19
2023-08-08T13:22:16.180Z,22.10
2023-08-08T13:27:18.013Z,22.79
2023-08-08T13:32:19.864Z,22.53
2023-08-08T13:37:21.843Z,22.08
2023-08-08T13:42:23.826Z,21.90
2023-08-08T13:47:26.042Z,21.92
2023-08-08T13:52:28.007Z,22.77
2023-08-08T13:57:30.162Z,24.35
2023-08-08T14:02:32.249Z,24.92
2023-08-08T14:07:36.148Z,24.17
2023-08-08T14:12:39.227Z,23.48
2023-08-08T14:17:41.199Z,24.01
2023-08-08T14:22:48.223Z,24.18
2023-08-08T14:27:50.130Z,24.19
2023-08-08T14:32:57.793Z,24.58
2023-08-08T14:37:59.745Z,24.27
2023-08-08T14:43:02.538Z,23.38
2023-08-08T14:48:08.555Z,23.09
2023-08-08T14:53:10.873Z,23.72
2023-08-08T14:58:16.136Z,23.52
2023-08-08T15:03:21.247Z,24.32
2023-08-08T15:08:26.156Z,24.82
2023-08-08T15:13:30.049Z,24.04
2023-08-08T15:18:34.607Z,22.92
2023-08-08T15:23:44.964Z,22.08
2023-08-08T15:28:48.646Z,21.28
2023-08-08T15:33:51.722Z,20.61
2023-08-08T15:38:53.803Z,19.91
2023-08-08T15:43:55.834Z,18.53
2023-08-08T15:48:57.987Z,18.25
2023-08-08T15:54:00.123Z,18.77
2023-08-08T15:59:02.100Z,19.51
2023-08-08T16:04:04.316Z,20.17
2023-08-08T16:09:06.384Z,20.75
2023-08-08T16:14:08.261Z,21.57
2023-08-08T16:19:10.363Z,22.11
2023-08-08T16:24:12.182Z,22.62
2023-08-08T16:29:14.010Z,23.27
2023-08-08T16:34:16.251Z,23.40
2023-08-08T16:39:19.448Z,22.76
2023-08-08T16:44:21.678Z,22.77
2023-08-08T16:49:23.767Z,23.46
2023-08-08T16:54:27.388Z,24.01
2023-08-08T16:59:29.264Z,24.30
2023-08-08T17:04:32.892Z,24.22
2023-08-08T17:09:34.725Z,23.51
2023-08-08T17:14:36.626Z,23.14
2023-08-08T17:19:52.367Z,22.94
2023-08-08T17:24:54.247Z,22.54
2023-08-08T17:29:56.066Z,21.93
2023-08-08T17:35:05.950Z,21.23
2023-08-08T17:40:08.492Z,20.54
2023-08-08T17:45:11.294Z,19.88
2023-08-08T17:50:13.437Z,19.32
2023-08-08T17:55:16.786Z,18.83
2023-08-08T18:00:19.509Z,18.41
2023-08-08T18:05:21.530Z,18.03
2023-08-08T18:10:23.714Z,17.64
2023-08-08T18:15:25.803Z,17.30
2023-08-08T18:20:27.654Z,17.03
2023-08-08T18:25:29.803Z,16.77
2023-08-08T18:30:31.719Z,16.55
2023-08-08T18:35:34.711Z,16.37
2023-08-08T18:40:38.035Z,16.24
2023-08-08T18:45:39.958Z,16.13
2023-08-08T18:50:42.372Z,16.03
2023-08-08T18:55:46.559Z,15.93
2023-08-08T19:00:49.757Z,15.85
2023-08-08T19:05:53.485Z,15.81
2023-08-08T19:10:55.417Z,15.80
2023-08-08T19:16:00.990Z,15.79
2023-08-08T19:21:03.612Z,15.77
2023-08-08T19:26:07.966Z,15.72
2023-08-08T19:31:11.431Z,15.62
2023-08-08T19:36:13.535Z,15.50
2023-08-08T19:41:28.456Z,15.40
2023-08-08T19:46:30.487Z,15.35
2023-08-08T19:51:32.656Z,15.36
2023-08-08T19:56:34.611Z,15.42
2023-08-08T20:01:36.608Z,15.47
2023-08-08T20:06:39.999Z,15.51
2023-08-08T20:11:42.715Z,15.54
2023-08-08T20:16:47.705Z,15.56
2023-08-08T20:21:50.887Z,15.59
2023-08-08T20:26:52.822Z,15.61
2023-08-08T20:31:54.718Z,15.61
2023-08-08T20:36:57.598Z,15.58
2023-08-08T20:42:01.757Z,15.48
2023-08-08T20:47:04.498Z,15.33
2023-08-08T20:52:06.608Z,15.13
2023-08-08T20:57:10.129Z,14.98
2023-08-08T21:02:12.246Z,14.85
2023-08-08T21:07:15.929Z,14.85
2023-08-08T21:12:17.901Z,14.96
2023-08-08T21:17:21.037Z,15.07
2023-08-08T21:22:23.872Z,15.22
2023-08-08T21:27:28.260Z,15.34
2023-08-08T21:32:44.477Z,15.41
2023-08-08T21:37:55.100Z,15.46
2023-08-08T21:42:59.891Z,15.48
2023-08-08T21:48:01.847Z,15.46
2023-08-08T21:53:04.050Z,15.45
2023-08-08T21:58:06.008Z,15.43
2023-08-08T22:03:10.874Z,15.40
2023-08-08T22:08:13.039Z,15.37
2023-08-08T22:13:15.684Z,15.34
2023-08-08T22:18:20.162Z,15.33
2023-08-08T22:23:22.013Z,15.31
2023-08-08T22:28:23.853Z,15.31
2023-08-08T22:33:25.704Z,15.34
2023-08-08T22:38:27.690Z,15.37
2023-08-08T22:43:29.613Z,15.35
2023-08-08T22:48:32.488Z,15.27
2023-08-08T22:53:34.336Z,15.14
2023-08-08T22:58:37.754Z,15.04
2023-08-08T23:03:39.703Z,14.97
2023-08-08T23:08:42.942Z,14.93
2023-08-08T23:13:44.800Z,14.92
2023-08-08T23:18:46.618Z,14.91
2023-08-08T23:23:48.688Z,14.91
2023-08-08T23:28:52.038Z,14.93
2023-08-08T23:33:54.443Z,14.93
2023-08-08T23:38:56.820Z,14.92
2023-08-08T23:43:58.887Z,14.90
2023-08-08T23:49:00.830Z,14.87
2023-08-08T23:54:04.099Z,14.86
2023-08-08T23:59:05.993Z,14.85
